Time;durP1;ratioP1;P1;durP2;ratioP2;P2;SDS_P1;SDS_P2;PMS_P1;PMS_P2;Temp;Humidity;BMP_temperature;BMP_pressure;BME280_temperature;BME280_humidity;BME280_pressure;Samples;Min_cycle;Max_cycle;Signal;HPM_P1;HPM_P2
2021/12/04 00:00:47;;;;;;;14.57;7.80;;;;;;;;;;5053837;28;20363;-38
2021/12/04 00:03:13;;;;;;;12.98;6.97;;;;;;;;;;5054035;28;20036;-38
2021/12/04 00:05:43;;;;;;;13.55;7.38;;;;;;;;;;5053544;28;20029;-38
2021/12/04 00:08:09;;;;;;;14.00;6.72;;;;;;;;;;5054212;28;20374;-38
2021/12/04 00:10:35;;;;;;;15.57;7.68;;;;;;;;;;5053572;28;20033;-38
2021/12/04 00:13:01;;;;;;;23.63;8.70;;;;;;;;;;5053862;28;20033;-38
2021/12/04 00:15:26;;;;;;;17.70;8.40;;;;;;;;;;5052899;28;20501;-39
2021/12/04 00:17:52;;;;;;;16.23;6.85;;;;;;;;;;5053036;28;20025;-39
2021/12/04 00:20:17;;;;;;;14.68;8.20;;;;;;;;;;5053688;28;20440;-39
2021/12/04 00:22:43;;;;;;;13.30;7.07;;;;;;;;;;5053630;28;20478;-39
2021/12/04 00:25:10;;;;;;;11.98;7.15;;;;;;;;;;5053616;28;20025;-39
2021/12/04 00:27:36;;;;;;;16.02;8.13;;;;;;;;;;5052493;28;20025;-39
2021/12/04 00:30:02;;;;;;;15.70;7.88;;;;;;;;;;5053223;28;20178;-39
2021/12/04 00:32:36;;;;;;;15.52;8.68;;;;;;;;;;5035058;28;20043;-39
2021/12/04 00:35:32;;;;;;;17.88;8.02;;;;;;;;;;5053171;28;20052;-39
2021/12/04 00:51:13;;;;;;;18.52;9.90;;;;;;;;;;5053066;28;20397;-40
2021/12/04 00:53:39;;;;;;;14.50;8.80;;;;;;;;;;5052844;28;20539;-39
2021/12/04 00:56:04;;;;;;;17.15;8.05;;;;;;;;;;5053066;28;20025;-39
2021/12/04 00:58:30;;;;;;;19.15;8.13;;;;;;;;;;5052963;28;20025;-39
2021/12/04 01:00:56;;;;;;;16.00;8.57;;;;;;;;;;5053050;28;20108;-39
2021/12/04 01:03:22;;;;;;;12.27;7.50;;;;;;;;;;5052954;28;20171;-39
2021/12/04 01:05:47;;;;;;;12.10;6.63;;;;;;;;;;5052908;28;20572;-41
2021/12/04 01:08:13;;;;;;;15.88;7.40;;;;;;;;;;5052608;28;20025;-41
2021/12/04 01:10:39;;;;;;;14.35;7.65;;;;;;;;;;5052855;28;20064;-40
2021/12/04 01:13:10;;;;;;;12.40;7.25;;;;;;;;;;5052753;28;20086;-41
2021/12/04 01:15:40;;;;;;;15.27;8.38;;;;;;;;;;5052953;28;20126;-40
2021/12/04 01:18:06;;;;;;;16.27;8.30;;;;;;;;;;5052445;28;20583;-40
2021/12/04 01:20:31;;;;;;;20.08;9.05;;;;;;;;;;5052798;28;20072;-41
2021/12/04 01:22:57;;;;;;;17.52;8.52;;;;;;;;;;5052417;28;20052;-40
2021/12/04 01:25:22;;;;;;;19.10;9.45;;;;;;;;;;5052318;28;20040;-40
2021/12/04 01:27:48;;;;;;;14.68;8.15;;;;;;;;;;5052340;28;20029;-40
2021/12/04 01:30:17;;;;;;;20.92;9.20;;;;;;;;;;5052595;28;20021;-41
2021/12/04 01:32:42;;;;;;;22.15;9.27;;;;;;;;;;5052357;28;20029;-39
2021/12/04 01:35:08;;;;;;;20.55;9.05;;;;;;;;;;5052216;28;20086;-40
2021/12/04 01:37:34;;;;;;;23.38;10.50;;;;;;;;;;5052230;28;20065;-41
2021/12/04 01:39:59;;;;;;;18.88;9.30;;;;;;;;;;5052275;28;20021;-39
2021/12/04 01:42:25;;;;;;;19.55;9.75;;;;;;;;;;5052232;28;20059;-40
2021/12/04 01:44:51;;;;;;;15.18;9.15;;;;;;;;;;5052091;28;20033;-40
2021/12/04 01:47:21;;;;;;;19.80;9.57;;;;;;;;;;5052177;28;20025;-40
2021/12/04 01:49:49;;;;;;;16.70;8.55;;;;;;;;;;5052114;28;20104;-41
2021/12/04 01:52:17;;;;;;;13.65;6.65;;;;;;;;;;5051968;28;20037;-39
2021/12/04 01:54:44;;;;;;;17.27;8.57;;;;;;;;;;5052049;28;20037;-40
2021/12/04 01:57:13;;;;;;;21.48;10.02;;;;;;;;;;5052258;28;20064;-40
2021/12/04 01:59:38;;;;;;;14.90;8.52;;;;;;;;;;5052047;28;20094;-40
2021/12/04 02:02:04;;;;;;;11.23;5.97;;;;;;;;;;5051971;28;20104;-39
2021/12/04 02:04:29;;;;;;;13.48;7.72;;;;;;;;;;5052285;28;20033;-40
2021/12/04 02:06:55;;;;;;;13.43;7.75;;;;;;;;;;5051992;28;20025;-41
2021/12/04 02:09:21;;;;;;;16.98;8.35;;;;;;;;;;5052132;28;20104;-41
2021/12/04 02:11:47;;;;;;;19.92;11.10;;;;;;;;;;5052126;28;20037;-39
2021/12/04 02:14:13;;;;;;;15.98;9.15;;;;;;;;;;5051838;28;20025;-41
2021/12/04 02:16:38;;;;;;;17.17;8.15;;;;;;;;;;5052112;28;20060;-40
2021/12/04 02:19:04;;;;;;;18.90;10.02;;;;;;;;;;5052076;28;20542;-39
2021/12/04 02:21:31;;;;;;;16.40;9.45;;;;;;;;;;5051784;28;20025;-39
2021/12/04 02:23:57;;;;;;;18.40;8.68;;;;;;;;;;5052091;28;20032;-39
2021/12/04 02:26:23;;;;;;;14.57;7.47;;;;;;;;;;5052017;28;20436;-39
2021/12/04 02:28:48;;;;;;;19.38;9.98;;;;;;;;;;5051619;28;20118;-39
2021/12/04 02:31:14;;;;;;;17.30;10.23;;;;;;;;;;5051539;28;20108;-39
2021/12/04 02:33:39;;;;;;;23.38;9.57;;;;;;;;;;5051652;28;20048;-40
2021/12/04 02:36:07;;;;;;;20.88;9.70;;;;;;;;;;5033844;28;20032;-39
2021/12/04 02:38:34;;;;;;;13.52;8.02;;;;;;;;;;5051710;28;20036;-38
2021/12/04 02:41:00;;;;;;;18.95;8.70;;;;;;;;;;5051652;28;20486;-39
2021/12/04 02:43:31;;;;;;;20.42;9.77;;;;;;;;;;5051895;28;20029;-40
2021/12/04 02:45:56;;;;;;;22.92;10.18;;;;;;;;;;5051720;28;20104;-40
2021/12/04 02:48:22;;;;;;;18.48;8.70;;;;;;;;;;5051878;28;20124;-40
2021/12/04 02:50:48;;;;;;;18.35;9.70;;;;;;;;;;5052045;28;20029;-41
2021/12/04 02:53:13;;;;;;;16.45;8.88;;;;;;;;;;5055084;28;20078;-40
2021/12/04 02:55:39;;;;;;;14.43;7.72;;;;;;;;;;5055169;28;20028;-40
2021/12/04 02:58:04;;;;;;;20.10;8.02;;;;;;;;;;5055153;28;20122;-41
2021/12/04 03:00:31;;;;;;;15.45;8.68;;;;;;;;;;5055030;28;20028;-39
2021/12/04 03:02:57;;;;;;;18.15;8.30;;;;;;;;;;5055276;28;20029;-39
2021/12/04 03:05:28;;;;;;;16.67;9.20;;;;;;;;;;5055288;28;20032;-39
2021/12/04 03:07:56;;;;;;;18.60;9.30;;;;;;;;;;5054952;28;20021;-39
2021/12/04 03:10:22;;;;;;;22.25;9.82;;;;;;;;;;5055153;28;20035;-39
2021/12/04 03:12:48;;;;;;;21.38;9.48;;;;;;;;;;5055023;28;20037;-38
2021/12/04 03:15:14;;;;;;;14.35;8.48;;;;;;;;;;5055033;28;20506;-40
2021/12/04 03:17:40;;;;;;;18.23;9.25;;;;;;;;;;5055080;28;20051;-39
2021/12/04 03:20:06;;;;;;;18.40;9.23;;;;;;;;;;5054614;28;20465;-39
2021/12/04 03:22:32;;;;;;;15.13;8.82;;;;;;;;;;5054660;28;20072;-39
2021/12/04 03:24:59;;;;;;;19.10;9.45;;;;;;;;;;5054891;28;20060;-39
2021/12/04 03:27:26;;;;;;;17.83;9.68;;;;;;;;;;5054460;28;20083;-41
2021/12/04 03:29:58;;;;;;;14.27;7.60;;;;;;;;;;5054855;28;20048;-39
2021/12/04 03:42:59;;;;;;;16.77;8.88;;;;;;;;;;5014649;28;20113;-39
2021/12/04 03:45:25;;;;;;;11.13;6.82;;;;;;;;;;5014812;28;20088;-40
2021/12/04 03:47:55;;;;;;;23.33;9.38;;;;;;;;;;5014365;28;20025;-39
2021/12/04 03:50:21;;;;;;;;;;;;;;;;;;5015162;28;20064;-40
2021/12/04 03:52:46;;;;;;;15.63;8.15;;;;;;;;;;5014600;28;20168;-40
2021/12/04 03:55:12;;;;;;;12.55;7.03;;;;;;;;;;5014284;28;20033;-40
2021/12/04 03:57:44;;;;;;;15.60;8.38;;;;;;;;;;5014621;28;20026;-40
2021/12/04 04:00:15;;;;;;;18.83;8.68;;;;;;;;;;5014515;28;20068;-40
2021/12/04 04:02:41;;;;;;;17.00;9.50;;;;;;;;;;5014099;28;20113;-39
2021/12/04 04:05:07;;;;;;;14.65;7.50;;;;;;;;;;5014546;28;20152;-39
2021/12/04 04:07:33;;;;;;;16.50;8.50;;;;;;;;;;5014102;28;20544;-39
2021/12/04 04:09:59;;;;;;;19.95;8.60;;;;;;;;;;5014363;28;20109;-39
2021/12/04 04:12:24;;;;;;;17.58;9.07;;;;;;;;;;5012644;28;20422;-39
2021/12/04 04:14:50;;;;;;;21.08;10.00;;;;;;;;;;5014287;28;20492;-39
2021/12/04 04:17:15;;;;;;;15.68;8.15;;;;;;;;;;5013958;28;20496;-39
2021/12/04 04:19:41;;;;;;;10.75;5.68;;;;;;;;;;5013870;28;20033;-39
2021/12/04 04:22:06;;;;;;;10.70;6.85;;;;;;;;;;5013877;28;20029;-38
2021/12/04 04:24:33;;;;;;;14.02;7.35;;;;;;;;;;5014145;28;20112;-39
2021/12/04 04:26:59;;;;;;;14.85;7.47;;;;;;;;;;5013742;28;20025;-38
2021/12/04 04:29:25;;;;;;;14.20;7.53;;;;;;;;;;5014138;28;20152;-39
2021/12/04 04:31:53;;;;;;;13.88;8.02;;;;;;;;;;5013927;28;20026;-40
2021/12/04 04:34:26;;;;;;;18.80;9.32;;;;;;;;;;5044271;28;20045;-39
2021/12/04 04:40:10;;;;;;;17.02;8.32;;;;;;;;;;5053577;28;20543;-40
2021/12/04 05:14:32;;;;;;;12.98;6.85;;;;;;;;;;5051971;28;20060;-38
2021/12/04 05:17:03;;;;;;;17.02;8.07;;;;;;;;;;5052822;28;20016;-38
2021/12/04 05:19:39;;;;;;;13.68;7.22;;;;;;;;;;5052740;28;20025;-38
2021/12/04 05:22:06;;;;;;;18.08;10.27;;;;;;;;;;5052444;28;20029;-39
2021/12/04 05:24:32;;;;;;;17.08;8.77;;;;;;;;;;5052628;28;20165;-38
2021/12/04 05:26:57;;;;;;;17.60;7.30;;;;;;;;;;5052700;28;20032;-38
2021/12/04 05:29:23;;;;;;;17.42;8.63;;;;;;;;;;5034531;28;20108;-38
2021/12/04 05:31:49;;;;;;;16.80;8.43;;;;;;;;;;5052484;28;20032;-39
2021/12/04 05:34:14;;;;;;;17.67;8.88;;;;;;;;;;5052060;28;20041;-39
2021/12/04 05:36:40;;;;;;;16.88;7.53;;;;;;;;;;5052191;28;20032;-40
2021/12/04 05:39:06;;;;;;;15.38;7.22;;;;;;;;;;5052560;28;20112;-39
2021/12/04 05:41:31;;;;;;;16.15;8.07;;;;;;;;;;5052172;28;20037;-38
2021/12/04 05:43:59;;;;;;;14.07;8.65;;;;;;;;;;5052414;28;20032;-40
2021/12/04 05:46:28;;;;;;;17.70;8.02;;;;;;;;;;5052458;28;20104;-39
2021/12/04 05:49:01;;;;;;;12.70;8.32;;;;;;;;;;5034330;28;20021;-39
2021/12/04 05:54:02;;;;;;;11.45;6.93;;;;;;;;;;5052405;28;20036;-38
2021/12/04 05:56:30;;;;;;;8.00;5.65;;;;;;;;;;5052048;28;20159;-38
2021/12/04 05:58:57;;;;;;;4.88;4.13;;;;;;;;;;5052313;28;20032;-38
2021/12/04 06:01:23;;;;;;;1.00;0.80;;;;;;;;;;5051975;28;20039;-38
2021/12/04 06:03:48;;;;;;;5.82;4.75;;;;;;;;;;5052286;28;20121;-39
2021/12/04 06:06:15;;;;;;;18.25;7.32;;;;;;;;;;5052343;28;20079;-38
2021/12/04 06:08:41;;;;;;;23.30;9.80;;;;;;;;;;5051909;28;20036;-38
2021/12/04 06:11:07;;;;;;;21.85;8.68;;;;;;;;;;5052192;28;20031;-39
2021/12/04 06:13:32;;;;;;;16.63;9.18;;;;;;;;;;5052190;28;20032;-38
2021/12/04 06:15:58;;;;;;;17.40;9.10;;;;;;;;;;5051853;28;20025;-38
2021/12/04 06:18:24;;;;;;;18.45;9.35;;;;;;;;;;5052245;28;20108;-39
2021/12/04 06:23:35;;;;;;;18.45;9.48;;;;;;;;;;5052168;28;20051;-39
2021/12/04 06:26:02;;;;;;;16.92;9.60;;;;;;;;;;5052858;28;20021;-39
2021/12/04 06:28:29;;;;;;;25.17;11.75;;;;;;;;;;5055685;28;20029;-39
2021/12/04 06:30:55;;;;;;;23.23;11.30;;;;;;;;;;5055979;28;20035;-39
2021/12/04 06:33:21;;;;;;;19.35;10.52;;;;;;;;;;5055305;28;20045;-39
2021/12/04 06:35:48;;;;;;;27.15;13.43;;;;;;;;;;5055527;28;20470;-38
2021/12/04 06:38:16;;;;;;;24.67;12.23;;;;;;;;;;5055675;28;20035;-41
2021/12/04 06:40:43;;;;;;;23.00;11.63;;;;;;;;;;5037868;28;20404;-39
2021/12/04 06:43:09;;;;;;;34.88;17.00;;;;;;;;;;5055639;28;20031;-38
2021/12/04 06:45:37;;;;;;;31.80;16.55;;;;;;;;;;5055555;28;20441;-38
2021/12/04 06:48:15;;;;;;;31.13;14.27;;;;;;;;;;5055263;28;20024;-38
2021/12/04 06:55:52;;;;;;;35.78;17.17;;;;;;;;;;5054975;28;20439;-39
2021/12/04 06:58:18;;;;;;;40.25;19.08;;;;;;;;;;5055036;28;20021;-38
2021/12/04 07:00:44;;;;;;;36.25;17.25;;;;;;;;;;5055073;28;20033;-38
2021/12/04 07:03:10;;;;;;;32.95;16.85;;;;;;;;;;5054931;28;20036;-38
2021/12/04 07:05:35;;;;;;;24.13;11.73;;;;;;;;;;5055278;28;20021;-37
2021/12/04 07:08:01;;;;;;;35.45;18.13;;;;;;;;;;5055193;28;20454;-39
2021/12/04 07:10:26;;;;;;;29.77;16.85;;;;;;;;;;5055220;28;20102;-38
2021/12/04 07:12:52;;;;;;;40.97;19.33;;;;;;;;;;5054777;28;20083;-39
2021/12/04 07:15:18;;;;;;;30.92;15.52;;;;;;;;;;5055085;28;20065;-39
2021/12/04 07:17:43;;;;;;;35.40;18.15;;;;;;;;;;5054791;28;20021;-39
2021/12/04 07:20:10;;;;;;;16.98;9.40;;;;;;;;;;5055035;28;20025;-39
2021/12/04 07:22:36;;;;;;;33.92;15.65;;;;;;;;;;5054592;28;20108;-39
2021/12/04 07:25:04;;;;;;;33.92;17.73;;;;;;;;;;5054956;28;20057;-39
2021/12/04 07:27:29;;;;;;;42.75;22.98;;;;;;;;;;5054769;28;20029;-39
2021/12/04 07:29:56;;;;;;;49.70;25.38;;;;;;;;;;5054515;28;20044;-40
2021/12/04 07:32:22;;;;;;;53.90;28.08;;;;;;;;;;5054398;28;20025;-39
2021/12/04 07:34:47;;;;;;;56.28;27.42;;;;;;;;;;5054306;28;20128;-39
2021/12/04 07:37:13;;;;;;;55.88;25.65;;;;;;;;;;5053836;28;20071;-39
2021/12/04 07:39:39;;;;;;;56.47;28.77;;;;;;;;;;5036618;28;20032;-38
2021/12/04 07:42:05;;;;;;;38.80;20.60;;;;;;;;;;5054526;28;20021;-39
2021/12/04 07:44:30;;;;;;;47.15;24.63;;;;;;;;;;5054620;28;20170;-39
2021/12/04 07:46:57;;;;;;;61.60;30.83;;;;;;;;;;5054265;28;20036;-38
2021/12/04 07:49:23;;;;;;;40.03;19.35;;;;;;;;;;5054191;28;20021;-39
2021/12/04 07:51:50;;;;;;;52.88;27.33;;;;;;;;;;5054315;28;20037;-39
2021/12/04 07:54:15;;;;;;;48.38;22.98;;;;;;;;;;5053974;28;20498;-39
2021/12/04 07:56:41;;;;;;;48.97;23.50;;;;;;;;;;5054363;28;20029;-39
2021/12/04 07:59:07;;;;;;;42.30;21.35;;;;;;;;;;5054031;28;20032;-39
2021/12/04 08:01:32;;;;;;;37.97;20.58;;;;;;;;;;5053883;28;20035;-40
2021/12/04 08:03:58;;;;;;;33.45;16.63;;;;;;;;;;5053845;28;20033;-39
2021/12/04 08:06:23;;;;;;;27.38;15.02;;;;;;;;;;5053840;28;20020;-39
2021/12/04 08:08:49;;;;;;;26.27;15.35;;;;;;;;;;5053999;28;20083;-39
2021/12/04 08:11:14;;;;;;;20.85;13.75;;;;;;;;;;5053927;28;20017;-39
2021/12/04 08:13:40;;;;;;;19.33;11.43;;;;;;;;;;5053943;28;20508;-39
2021/12/04 08:16:05;;;;;;;13.43;8.98;;;;;;;;;;5053653;28;20449;-39
2021/12/04 08:18:31;;;;;;;14.93;9.52;;;;;;;;;;5053861;28;20485;-39
2021/12/04 08:20:57;;;;;;;11.85;6.90;;;;;;;;;;5053499;28;20025;-39
2021/12/04 08:23:22;;;;;;;18.88;8.10;;;;;;;;;;5036050;28;20029;-39
2021/12/04 08:25:48;;;;;;;14.23;9.13;;;;;;;;;;5053831;28;20489;-40
2021/12/04 08:28:14;;;;;;;13.13;6.63;;;;;;;;;;5053281;28;20466;-40
2021/12/04 08:30:40;;;;;;;23.60;15.50;;;;;;;;;;5053700;28;20033;-39
2021/12/04 08:33:11;;;;;;;11.52;7.85;;;;;;;;;;5053092;28;20059;-39
2021/12/04 08:35:40;;;;;;;15.50;8.68;;;;;;;;;;5053612;28;20386;-39
2021/12/04 08:38:12;;;;;;;14.27;8.98;;;;;;;;;;5035355;28;20025;-40
2021/12/04 08:40:39;;;;;;;14.80;7.82;;;;;;;;;;5052915;28;20031;-39
2021/12/04 08:43:05;;;;;;;14.23;8.68;;;;;;;;;;5053277;28;20355;-40
2021/12/04 08:45:32;;;;;;;15.25;9.13;;;;;;;;;;5053316;28;20025;-40
2021/12/04 08:47:57;;;;;;;12.13;8.38;;;;;;;;;;5052816;28;20108;-39
2021/12/04 08:50:26;;;;;;;13.73;8.18;;;;;;;;;;5052462;28;20052;-40
2021/12/04 08:52:54;;;;;;;14.02;8.20;;;;;;;;;;5053150;28;20033;-40
2021/12/04 08:55:22;;;;;;;15.30;7.82;;;;;;;;;;5053173;28;20136;-39
2021/12/04 08:57:48;;;;;;;14.43;8.13;;;;;;;;;;5052886;28;20064;-40
2021/12/04 09:00:24;;;;;;;12.32;7.47;;;;;;;;;;5053151;28;20497;-39
2021/12/04 09:02:50;;;;;;;11.57;7.25;;;;;;;;;;5053072;28;20025;-39
2021/12/04 09:05:18;;;;;;;13.35;7.70;;;;;;;;;;5052976;28;20090;-39
2021/12/04 09:07:45;;;;;;;10.30;5.88;;;;;;;;;;5052774;28;20079;-39
2021/12/04 09:10:12;;;;;;;10.63;6.40;;;;;;;;;;5052508;28;20108;-39
2021/12/04 09:12:38;;;;;;;13.82;8.02;;;;;;;;;;5052384;28;20071;-40
2021/12/04 09:15:06;;;;;;;11.60;7.88;;;;;;;;;;5052822;28;20028;-40
2021/12/04 09:17:32;;;;;;;13.18;7.57;;;;;;;;;;5052778;28;20056;-39
2021/12/04 09:19:58;;;;;;;13.70;7.68;;;;;;;;;;5052743;28;20482;-39
2021/12/04 09:22:32;;;;;;;10.23;6.97;;;;;;;;;;5052505;28;20040;-40
2021/12/04 09:24:59;;;;;;;13.32;7.65;;;;;;;;;;5052524;28;20025;-38
2021/12/04 09:35:56;;;;;;;13.98;7.85;;;;;;;;;;5052107;28;20044;-39
2021/12/04 10:16:58;;;;;;;15.02;7.18;;;;;;;;;;5055953;28;20477;-40
2021/12/04 10:33:48;;;;;;;13.43;5.30;;;;;;;;;;5055650;28;20055;-44
2021/12/04 10:36:36;;;;;;;9.32;5.45;;;;;;;;;;5055437;28;20021;-39
2021/12/04 10:39:04;;;;;;;12.90;6.07;;;;;;;;;;5055876;28;20442;-45
2021/12/04 10:41:32;;;;;;;9.70;5.45;;;;;;;;;;5054116;28;20039;-39
2021/12/04 10:44:16;;;;;;;11.82;6.53;;;;;;;;;;5053806;28;20084;-44
2021/12/04 10:46:55;;;;;;;10.05;5.90;;;;;;;;;;5053719;28;20029;-38
2021/12/04 10:49:43;;;;;;;12.93;6.43;;;;;;;;;;5053967;28;20036;-39
2021/12/04 10:52:19;;;;;;;5.45;3.25;;;;;;;;;;5053552;28;20079;-43
2021/12/04 10:54:50;;;;;;;11.15;6.03;;;;;;;;;;5052446;28;20033;-42
2021/12/04 11:03:02;;;;;;;10.02;4.90;;;;;;;;;;5050620;28;20482;-45
2021/12/04 11:44:05;;;;;;;15.40;8.18;;;;;;;;;;5053149;28;20525;-37
2021/12/04 11:46:44;;;;;;;9.18;4.60;;;;;;;;;;5052627;28;20474;-37
2021/12/04 11:49:21;;;;;;;12.98;5.97;;;;;;;;;;5053025;28;20078;-39
2021/12/04 11:51:57;;;;;;;15.73;6.03;;;;;;;;;;5052920;28;20516;-37
2021/12/04 11:54:52;;;;;;;11.75;5.50;;;;;;;;;;5052923;28;20047;-37
2021/12/04 11:57:32;;;;;;;11.05;6.28;;;;;;;;;;5052549;28;20506;-38
2021/12/04 12:00:08;;;;;;;11.55;4.38;;;;;;;;;;5052891;28;20024;-39
2021/12/04 12:02:34;;;;;;;9.95;4.88;;;;;;;;;;5052401;28;20033;-38
2021/12/04 12:04:59;;;;;;;11.48;5.50;;;;;;;;;;5052499;28;20025;-39
2021/12/04 12:07:28;;;;;;;8.15;5.45;;;;;;;;;;5052566;28;20104;-38
2021/12/04 12:10:10;;;;;;;9.70;5.35;;;;;;;;;;5052521;28;20029;-39
2021/12/04 12:12:38;;;;;;;14.38;7.70;;;;;;;;;;5051366;28;20037;-43
2021/12/04 12:15:29;;;;;;;8.18;4.20;;;;;;;;;;5050509;28;20025;-44
2021/12/04 12:17:55;;;;;;;8.52;5.88;;;;;;;;;;5051056;28;20036;-39
2021/12/04 12:21:18;;;;;;;12.38;6.40;;;;;;;;;;5051995;28;20033;-39
2021/12/04 12:23:28;;;;;;;11.02;5.60;;;;;;;;;;5040761;28;20055;-38
2021/12/04 12:26:12;;;;;;;9.32;6.15;;;;;;;;;;5052308;28;20116;-39
2021/12/04 12:36:02;;;;;;;10.65;6.68;;;;;;;;;;5051675;28;20120;-39
2021/12/04 12:37:16;;;;;;;9.85;5.75;;;;;;;;;;5051716;28;20040;-39
2021/12/04 12:40:12;;;;;;;8.55;4.25;;;;;;;;;;5051467;28;20104;-43
2021/12/04 12:42:40;;;;;;;11.35;6.22;;;;;;;;;;5035231;28;20037;-40
2021/12/04 12:45:23;;;;;;;7.57;5.00;;;;;;;;;;5050940;28;20031;-38
2021/12/04 12:48:06;;;;;;;7.85;5.00;;;;;;;;;;5051615;28;20432;-38
2021/12/04 12:50:43;;;;;;;7.65;5.00;;;;;;;;;;5050506;28;20021;-39
2021/12/04 12:53:13;;;;;;;8.00;5.40;;;;;;;;;;5053183;28;20033;-42
2021/12/04 12:55:41;;;;;;;10.23;5.57;;;;;;;;;;5053180;28;20104;-41
2021/12/04 12:58:18;;;;;;;11.63;6.18;;;;;;;;;;5052830;28;20437;-43
2021/12/04 13:12:08;;;;;;;14.52;7.10;;;;;;;;;;5052539;28;20036;-41
2021/12/04 13:14:40;;;;;;;8.32;4.50;;;;;;;;;;5052869;28;20540;-42
2021/12/04 13:17:10;;;;;;;12.98;7.53;;;;;;;;;;5052660;28;20040;-44
2021/12/04 13:19:46;;;;;;;14.80;6.22;;;;;;;;;;5052846;28;20054;-42
2021/12/04 13:22:18;;;;;;;12.40;6.97;;;;;;;;;;5052547;28;20551;-43
2021/12/04 13:24:46;;;;;;;14.32;6.60;;;;;;;;;;5051947;28;20033;-42
2021/12/04 13:29:46;;;;;;;16.25;8.15;;;;;;;;;;5052669;28;20063;-41
2021/12/04 13:32:16;;;;;;;11.32;6.82;;;;;;;;;;5052173;28;20465;-42
2021/12/04 13:34:43;;;;;;;20.48;7.30;;;;;;;;;;5051708;28;20049;-42
2021/12/04 13:37:10;;;;;;;12.70;6.13;;;;;;;;;;5052230;28;20032;-41
2021/12/04 13:39:43;;;;;;;6.80;3.95;;;;;;;;;;5052266;28;20021;-42
2021/12/04 13:42:09;;;;;;;11.85;6.85;;;;;;;;;;5052198;28;20123;-41
2021/12/04 13:44:35;;;;;;;10.90;5.75;;;;;;;;;;5052119;28;20152;-41
2021/12/04 13:47:04;;;;;;;8.63;4.80;;;;;;;;;;5052413;28;20107;-41
2021/12/04 13:50:00;;;;;;;11.45;6.38;;;;;;;;;;5052284;28;20025;-41
2021/12/04 13:52:31;;;;;;;5.88;4.55;;;;;;;;;;5052072;28;20035;-41
2021/12/04 13:54:59;;;;;;;;;;;;;;;;;;5052772;28;20021;-41
2021/12/04 13:57:26;;;;;;;9.70;6.07;;;;;;;;;;5052402;28;19980;-41
2021/12/04 14:00:00;;;;;;;12.10;5.82;;;;;;;;;;5052201;28;20106;-41
2021/12/04 14:02:28;;;;;;;9.52;5.25;;;;;;;;;;5051974;28;20595;-41
2021/12/04 14:04:59;;;;;;;14.68;7.45;;;;;;;;;;5052005;28;20470;-42
2021/12/04 14:07:25;;;;;;;;;;;;;;;;;;5052426;28;20029;-44
2021/12/04 14:09:50;;;;;;;8.63;5.07;;;;;;;;;;5051919;28;19923;-42
2021/12/04 14:12:16;;;;;;;11.50;6.85;;;;;;;;;;5051388;28;20466;-42
2021/12/04 14:14:41;;;;;;;12.00;7.13;;;;;;;;;;5052176;28;20393;-42
2021/12/04 14:17:14;;;;;;;17.77;8.00;;;;;;;;;;5052124;28;20470;-42
2021/12/04 14:19:41;;;;;;;17.77;8.20;;;;;;;;;;5052186;28;20021;-42
2021/12/04 14:22:17;;;;;;;19.27;8.90;;;;;;;;;;5052018;28;20399;-42
2021/12/04 14:24:48;;;;;;;17.00;8.07;;;;;;;;;;5033105;28;20055;-41
2021/12/04 14:27:35;;;;;;;16.38;7.65;;;;;;;;;;5052099;28;20025;-41
2021/12/04 14:30:07;;;;;;;17.20;8.70;;;;;;;;;;5051596;28;20032;-40
2021/12/04 14:32:37;;;;;;;19.83;9.63;;;;;;;;;;5051743;28;20477;-41
2021/12/04 14:35:15;;;;;;;22.73;10.35;;;;;;;;;;5051773;28;20025;-41
2021/12/04 14:37:48;;;;;;;18.23;9.73;;;;;;;;;;5051795;28;20090;-41
2021/12/04 14:40:19;;;;;;;18.42;8.32;;;;;;;;;;5051786;28;20359;-41
2021/12/04 14:42:45;;;;;;;19.27;9.68;;;;;;;;;;5051779;28;20021;-41
2021/12/04 14:45:24;;;;;;;16.35;9.48;;;;;;;;;;5051797;28;20021;-42
2021/12/04 14:48:11;;;;;;;15.38;8.48;;;;;;;;;;5053634;28;20070;-42
2021/12/04 14:50:41;;;;;;;16.50;8.77;;;;;;;;;;5055341;28;20470;-42
2021/12/04 14:53:10;;;;;;;15.80;9.00;;;;;;;;;;5055445;28;20462;-42
2021/12/04 14:55:39;;;;;;;19.93;10.03;;;;;;;;;;5055367;28;20029;-41
2021/12/04 14:58:08;;;;;;;18.77;9.25;;;;;;;;;;5054219;28;20269;-40
2021/12/04 15:00:36;;;;;;;23.10;9.60;;;;;;;;;;5055048;28;20060;-43
2021/12/04 15:03:08;;;;;;;19.92;8.80;;;;;;;;;;5055182;28;20382;-44
2021/12/04 15:05:40;;;;;;;22.65;9.30;;;;;;;;;;5053657;28;20500;-40
2021/12/04 15:08:10;;;;;;;20.83;8.65;;;;;;;;;;5055025;28;20021;-41
2021/12/04 15:10:37;;;;;;;19.67;9.18;;;;;;;;;;5054815;28;20021;-41
2021/12/04 15:13:06;;;;;;;17.30;8.63;;;;;;;;;;5054292;28;20048;-46
2021/12/04 15:15:34;;;;;;;24.00;9.73;;;;;;;;;;5053393;28;20017;-40
2021/12/04 15:18:05;;;;;;;21.02;9.23;;;;;;;;;;5053226;28;20021;-42
2021/12/04 15:20:35;;;;;;;;;;;;;;;;;;5053692;28;20394;-40
2021/12/04 15:23:06;;;;;;;13.88;5.55;;;;;;;;;;5053160;28;20364;-48
2021/12/04 15:25:35;;;;;;;15.77;8.30;;;;;;;;;;5053458;28;20040;-47
2021/12/04 15:28:13;;;;;;;12.00;6.50;;;;;;;;;;5052858;28;20037;-40
2021/12/04 15:30:44;;;;;;;20.45;8.90;;;;;;;;;;5053377;28;20025;-45
2021/12/04 15:33:19;;;;;;;;;;;;;;;;;;5053316;28;20101;-45
2021/12/04 15:35:48;;;;;;;12.70;6.35;;;;;;;;;;5035088;28;19943;-39
2021/12/04 15:38:22;;;;;;;17.98;8.38;;;;;;;;;;5053106;28;20033;-40
2021/12/04 15:54:01;;;;;;;18.42;8.55;;;;;;;;;;5053043;28;20102;-43
2021/12/04 15:56:35;;;;;;;19.25;9.55;;;;;;;;;;5052527;28;20035;-44
2021/12/04 15:59:00;;;;;;;21.65;10.25;;;;;;;;;;5051606;28;20115;-39
2021/12/04 16:01:28;;;;;;;20.52;10.02;;;;;;;;;;5052532;28;20136;-40
2021/12/04 16:03:54;;;;;;;20.13;10.48;;;;;;;;;;5052664;28;20029;-39
2021/12/04 16:06:20;;;;;;;18.98;10.07;;;;;;;;;;5052691;28;20435;-39
2021/12/04 16:08:46;;;;;;;20.98;10.18;;;;;;;;;;5052365;28;20532;-40
2021/12/04 16:11:15;;;;;;;20.70;10.00;;;;;;;;;;5052131;28;20025;-40
2021/12/04 16:13:47;;;;;;;25.85;11.98;;;;;;;;;;5052239;28;20474;-40
2021/12/04 16:16:22;;;;;;;22.95;11.55;;;;;;;;;;5052349;28;20033;-40
2021/12/04 16:18:53;;;;;;;23.23;10.88;;;;;;;;;;5052371;28;20056;-40
2021/12/04 16:21:19;;;;;;;20.50;10.73;;;;;;;;;;5051326;28;20108;-41
2021/12/04 16:23:47;;;;;;;26.52;10.95;;;;;;;;;;5052215;28;20109;-48
2021/12/04 16:26:16;;;;;;;24.63;10.80;;;;;;;;;;5052093;28;20028;-40
2021/12/04 16:31:56;;;;;;;22.80;11.65;;;;;;;;;;5052293;28;20071;-39
2021/12/04 16:37:04;;;;;;;28.60;13.15;;;;;;;;;;5051908;28;20132;-42
2021/12/04 16:39:30;;;;;;;29.45;14.35;;;;;;;;;;5051828;28;20049;-40
2021/12/04 16:41:56;;;;;;;27.70;12.95;;;;;;;;;;5033780;28;20461;-41
2021/12/04 16:44:21;;;;;;;27.20;13.88;;;;;;;;;;5051859;28;20053;-41
2021/12/04 16:46:49;;;;;;;21.55;11.90;;;;;;;;;;5051561;28;20064;-39
2021/12/04 16:49:15;;;;;;;21.98;11.50;;;;;;;;;;5051326;28;20031;-40
2021/12/04 16:57:34;;;;;;;23.00;10.95;;;;;;;;;;5051780;28;20570;-39
2021/12/04 17:00:00;;;;;;;15.35;8.18;;;;;;;;;;5051713;28;20178;-39
2021/12/04 17:02:27;;;;;;;30.55;15.57;;;;;;;;;;5051258;28;20479;-41
2021/12/04 17:04:53;;;;;;;32.47;16.15;;;;;;;;;;5051014;28;20061;-42
2021/12/04 17:07:21;;;;;;;33.50;16.00;;;;;;;;;;5051034;28;20043;-39
2021/12/04 17:09:48;;;;;;;24.80;12.00;;;;;;;;;;5050444;28;20100;-40
2021/12/04 17:12:14;;;;;;;26.08;12.55;;;;;;;;;;5051222;28;20037;-40
2021/12/04 17:14:40;;;;;;;33.47;15.02;;;;;;;;;;5051120;28;20024;-40
2021/12/04 17:17:11;;;;;;;25.70;13.35;;;;;;;;;;5051316;28;20060;-40
2021/12/04 17:19:38;;;;;;;25.05;12.38;;;;;;;;;;5051450;28;20056;-39
2021/12/04 17:22:04;;;;;;;33.20;14.57;;;;;;;;;;5051189;28;20389;-48
2021/12/04 17:24:31;;;;;;;29.70;14.95;;;;;;;;;;5050967;28;20115;-40
2021/12/04 17:26:59;;;;;;;35.40;15.05;;;;;;;;;;5050991;28;20037;-42
2021/12/04 17:29:25;;;;;;;33.40;15.88;;;;;;;;;;5050793;28;20110;-46
2021/12/04 17:31:52;;;;;;;35.53;15.32;;;;;;;;;;5051114;28;20028;-46
2021/12/04 17:34:19;;;;;;;29.05;14.25;;;;;;;;;;5049794;28;20056;-41
2021/12/04 17:36:44;;;;;;;28.30;13.23;;;;;;;;;;5051048;28;20418;-39
2021/12/04 17:39:11;;;;;;;27.05;14.40;;;;;;;;;;5051076;28;20057;-40
2021/12/04 17:41:38;;;;;;;30.67;13.95;;;;;;;;;;5050731;28;20466;-40
2021/12/04 17:44:09;;;;;;;27.38;12.25;;;;;;;;;;5050888;28;20082;-48
2021/12/04 17:46:34;;;;;;;;;;;;;;;;;;5050404;28;20033;-40
2021/12/04 17:49:01;;;;;;;25.23;12.63;;;;;;;;;;5050550;28;20392;-40
2021/12/04 17:51:28;;;;;;;13.25;7.30;;;;;;;;;;5050531;28;20490;-40
2021/12/04 17:53:57;;;;;;;17.45;9.23;;;;;;;;;;5052208;28;20039;-40
2021/12/04 17:56:22;;;;;;;14.35;8.10;;;;;;;;;;5051798;28;20204;-40
2021/12/04 17:58:48;;;;;;;20.38;10.55;;;;;;;;;;5052208;28;20128;-40
2021/12/04 18:01:20;;;;;;;16.67;9.48;;;;;;;;;;5051988;28;20044;-39
2021/12/04 18:03:46;;;;;;;26.33;13.45;;;;;;;;;;5051390;28;20116;-39
2021/12/04 18:06:16;;;;;;;10.23;6.00;;;;;;;;;;5051764;28;20067;-40
2021/12/04 18:08:43;;;;;;;24.70;11.20;;;;;;;;;;5052005;28;20025;-44
2021/12/04 18:11:12;;;;;;;9.38;6.65;;;;;;;;;;5052110;28;20112;-40
2021/12/04 18:13:43;;;;;;;18.05;8.85;;;;;;;;;;5051888;28;20508;-41
2021/12/04 18:16:13;;;;;;;22.27;11.15;;;;;;;;;;5052113;28;20025;-40